Time;durP1;ratioP1;P1;durP2;ratioP2;P2;SDS_P1;SDS_P2;PMS_P1;PMS_P2;Temp;Humidity;BMP_temperature;BMP_pressure;BME280_temperature;BME280_humidity;BME280_pressure;Samples;Min_cycle;Max_cycle;Signal;HPM_P1;HPM_P2
2021/08/03 00:00:52;;;;;;;3.42;2.10;;;;;;;16.48;39.86;101077.81;3565701;40;20049;-71
2021/08/03 00:03:24;;;;;;;3.88;2.38;;;;;;;16.42;39.13;101075.69;3565300;40;20053;-71
2021/08/03 00:05:54;;;;;;;3.35;2.17;;;;;;;16.40;39.35;101074.97;3565108;40;20369;-71
2021/08/03 00:08:27;;;;;;;4.00;2.58;;;;;;;16.40;39.88;101074.97;3566558;40;20042;-71
2021/08/03 00:10:57;;;;;;;3.80;2.58;;;;;;;16.34;39.53;101071.00;3572399;40;20423;-71
2021/08/03 00:13:28;;;;;;;3.13;2.35;;;;;;;16.33;39.80;101072.03;3567077;40;20038;-71
2021/08/03 00:15:58;;;;;;;3.88;2.33;;;;;;;16.31;39.24;101064.91;3573336;40;20057;-71
2021/08/03 00:18:26;;;;;;;5.28;2.45;;;;;;;16.27;39.83;101069.94;3572689;40;20057;-70
2021/08/03 00:20:54;;;;;;;3.60;2.50;;;;;;;16.24;39.77;101069.38;3573090;40;20048;-71
2021/08/03 00:23:24;;;;;;;3.72;2.63;;;;;;;16.22;39.48;101064.00;3571748;40;20044;-71
2021/08/03 00:25:53;;;;;;;4.65;2.67;;;;;;;16.18;40.19;101059.88;3568140;40;20139;-71
2021/08/03 00:28:21;;;;;;;3.63;2.55;;;;;;;16.15;39.51;101060.19;3576907;40;20037;-71
2021/08/03 00:30:50;;;;;;;3.75;2.50;;;;;;;16.11;39.51;101064.31;3576935;40;20064;-71
2021/08/03 00:33:19;;;;;;;4.07;2.60;;;;;;;16.09;40.05;101063.59;3568199;40;20045;-71
2021/08/03 00:35:49;;;;;;;4.88;2.67;;;;;;;16.07;40.03;101060.13;3562753;40;20049;-71
2021/08/03 00:38:18;;;;;;;4.35;2.80;;;;;;;16.03;39.99;101054.09;3559547;40;20411;-71
2021/08/03 00:40:55;;;;;;;4.00;2.75;;;;;;;16.03;40.06;101051.34;3562053;40;20072;-71
2021/08/03 00:43:23;;;;;;;4.75;2.50;;;;;;;15.97;40.33;101049.22;3563294;40;20049;-71
2021/08/03 00:45:52;;;;;;;3.78;2.35;;;;;;;15.97;40.29;101051.97;3563958;40;20680;-71
2021/08/03 00:48:20;;;;;;;4.28;2.53;;;;;;;15.96;40.28;101049.41;3560097;40;20325;-71
2021/08/03 00:50:49;;;;;;;4.80;2.50;;;;;;;15.95;40.23;101050.44;3565106;40;20057;-71
2021/08/03 00:53:18;;;;;;;5.47;2.70;;;;;;;15.94;40.11;101046.78;3569777;40;20400;-71
2021/08/03 00:55:49;;;;;;;4.03;2.35;;;;;;;15.95;40.19;101043.00;3575006;40;20457;-71
2021/08/03 00:58:18;;;;;;;4.10;2.30;;;;;;;15.92;39.95;101039.69;3572389;40;20130;-71
2021/08/03 01:00:46;;;;;;;4.57;2.72;;;;;;;15.91;40.09;101033.31;3575296;40;20056;-71
2021/08/03 01:03:14;;;;;;;4.53;2.80;;;;;;;15.92;39.98;101031.41;3574803;40;20075;-71
2021/08/03 01:05:54;;;;;;;4.13;2.55;;;;;;;15.93;40.27;101028.50;3574273;40;20053;-71
2021/08/03 01:08:29;;;;;;;4.68;2.70;;;;;;;15.89;40.63;101027.09;3551700;40;20064;-71
2021/08/03 01:11:04;;;;;;;5.20;3.03;;;;;;;15.88;41.10;101028.16;3530120;40;20717;-71
2021/08/03 01:13:43;;;;;;;3.90;2.70;;;;;;;15.86;40.45;101026.56;3560572;40;20158;-71
2021/08/03 01:16:20;;;;;;;4.43;2.72;;;;;;;15.82;40.49;101029.63;3563053;40;20557;-71
2021/08/03 01:18:56;;;;;;;4.82;2.60;;;;;;;15.80;41.29;101031.72;3563613;40;20041;-71
2021/08/03 01:24:54;;;;;;;3.50;2.30;;;;;;;15.76;40.58;101027.53;3588021;23;20044;-75
2021/08/03 01:27:38;;;;;;;4.45;2.88;;;;;;;15.74;41.09;101023.19;3576630;40;20423;-75
2021/08/03 01:30:10;;;;;;;4.35;2.90;;;;;;;15.73;40.82;101027.84;3567054;40;20083;-74
2021/08/03 01:32:44;;;;;;;3.97;2.50;;;;;;;15.76;40.76;101029.44;3555878;40;20042;-73
2021/08/03 01:35:14;;;;;;;4.60;2.80;;;;;;;15.73;40.92;101030.59;3536459;40;20160;-74
2021/08/03 01:37:44;;;;;;;4.93;2.67;;;;;;;15.73;40.56;101029.75;3536511;40;20410;-75
2021/08/03 01:40:14;;;;;;;3.83;2.50;;;;;;;15.75;40.91;101030.44;3536598;40;20102;-74
2021/08/03 01:42:46;;;;;;;5.18;2.78;;;;;;;15.75;40.90;101028.56;3524827;40;20132;-74
2021/08/03 01:45:19;;;;;;;4.05;2.60;;;;;;;15.75;41.20;101025.81;3536434;40;20072;-74
2021/08/03 01:47:47;;;;;;;4.03;2.70;;;;;;;15.73;40.66;101018.72;3526816;40;20418;-76
2021/08/03 01:50:18;;;;;;;4.05;2.67;;;;;;;15.75;41.03;101023.03;3533772;40;20035;-74
2021/08/03 01:52:57;;;;;;;3.95;2.42;;;;;;;15.73;40.96;101019.56;3526824;40;20159;-74
2021/08/03 01:55:29;;;;;;;4.75;3.30;;;;;;;15.73;41.22;101019.56;3543229;40;20018;-75
2021/08/03 01:58:04;;;;;;;3.95;2.50;;;;;;;15.71;40.85;101023.53;3546367;40;20442;-75
2021/08/03 02:00:51;;;;;;;5.75;2.78;;;;;;;15.71;41.09;101027.16;3531393;40;20405;-74
2021/08/03 02:03:22;;;;;;;4.82;3.40;;;;;;;15.68;41.42;101013.69;3526794;40;21399;-77
2021/08/03 02:06:00;;;;;;;4.35;3.15;;;;;;;15.70;41.60;101024.56;3526746;40;20036;-75
2021/08/03 02:08:31;;;;;;;5.83;3.30;;;;;;;15.67;41.39;101019.38;3507631;41;20032;-74
2021/08/03 02:11:11;;;;;;;4.38;2.85;;;;;;;15.67;41.21;101016.59;3526675;40;20287;-76
2021/08/03 02:13:39;;;;;;;4.88;3.13;;;;;;;15.67;41.40;101014.72;3526144;40;20063;-75
2021/08/03 02:16:16;;;;;;;5.47;3.42;;;;;;;15.69;41.37;101011.81;3522119;40;20026;-76
2021/08/03 02:18:48;;;;;;;4.22;2.67;;;;;;;15.66;41.11;101010.22;3536127;40;20043;-75
2021/08/03 02:21:24;;;;;;;4.13;2.90;;;;;;;15.68;41.09;101018.34;3545570;40;20419;-74
2021/08/03 02:23:53;;;;;;;4.72;2.75;;;;;;;15.68;41.61;101012.81;3527334;40;20233;-75
2021/08/03 02:26:23;;;;;;;5.65;3.30;;;;;;;15.68;41.25;101010.06;3535693;40;20047;-75
2021/08/03 02:28:52;;;;;;;5.55;3.17;;;;;;;15.69;41.30;101014.56;3551429;40;20143;-74
2021/08/03 02:31:28;;;;;;;4.85;3.30;;;;;;;15.72;41.08;101008.72;3547067;40;20054;-75
2021/08/03 02:34:03;;;;;;;5.15;3.13;;;;;;;15.73;41.47;101015.94;3561950;40;20164;-75
2021/08/03 02:36:40;;;;;;;5.28;3.03;;;;;;;15.74;42.06;101010.28;3555435;40;20097;-74
2021/08/03 02:39:11;;;;;;;4.82;3.10;;;;;;;15.73;41.61;101010.44;3555700;40;20038;-76
2021/08/03 02:41:39;;;;;;;4.68;3.13;;;;;;;15.72;41.55;101009.56;3565741;40;20041;-75
2021/08/03 02:44:09;;;;;;;6.22;3.38;;;;;;;15.75;41.74;101000.13;3565633;40;20041;-76
2021/08/03 02:46:40;;;;;;;4.90;3.17;;;;;;;15.75;41.75;101000.97;3565257;40;20037;-74
2021/08/03 02:49:12;;;;;;;4.43;3.30;;;;;;;15.74;41.68;100998.38;3555489;40;20445;-76
2021/08/03 02:51:42;;;;;;;5.47;3.38;;;;;;;15.73;41.21;101003.03;3555360;40;20321;-74
2021/08/03 02:54:23;;;;;;;6.63;3.20;;;;;;;15.77;41.82;101000.81;3555734;40;20716;-75
2021/08/03 02:56:56;;;;;;;4.60;3.10;;;;;;;15.75;42.18;100991.84;3565012;40;20041;-74
2021/08/03 02:59:26;;;;;;;5.40;3.13;;;;;;;15.76;41.75;100999.09;3552228;40;20057;-75
2021/08/03 03:01:57;;;;;;;4.30;2.85;;;;;;;15.78;42.57;100995.16;3545440;40;20514;-76
2021/08/03 03:04:33;;;;;;;6.00;3.80;;;;;;;15.80;42.51;100995.00;3525003;40;20065;-75
2021/08/03 03:07:08;;;;;;;5.30;3.13;;;;;;;15.79;42.27;100990.50;3521965;40;20123;-76
2021/08/03 03:09:38;;;;;;;5.10;3.17;;;;;;;15.80;41.64;100989.47;3516236;40;20055;-74
2021/08/03 03:12:08;;;;;;;5.57;2.95;;;;;;;15.81;42.00;100988.41;3535359;40;20043;-74
2021/08/03 03:14:39;;;;;;;7.22;3.70;;;;;;;15.82;41.96;100988.25;3543640;40;20043;-76
2021/08/03 03:17:12;;;;;;;6.38;3.67;;;;;;;15.84;42.36;100987.25;3515943;40;20087;-75
2021/08/03 03:19:42;;;;;;;5.65;3.95;;;;;;;15.83;42.56;100983.63;3510335;40;20107;-74
2021/08/03 03:22:13;;;;;;;5.80;3.47;;;;;;;15.84;42.83;100982.59;3506756;41;20032;-74
2021/08/03 03:24:43;;;;;;;6.25;3.97;;;;;;;15.82;42.82;100981.88;3487261;41;20045;-74
2021/08/03 03:27:13;;;;;;;5.65;3.38;;;;;;;15.82;42.71;100988.25;3486741;41;20400;-75
2021/08/03 03:29:42;;;;;;;4.63;3.33;;;;;;;15.82;42.62;100988.25;3500446;40;20068;-74
2021/08/03 03:32:14;;;;;;;5.05;3.70;;;;;;;15.85;42.45;100986.22;3514598;40;20036;-75
2021/08/03 03:34:44;;;;;;;4.80;3.65;;;;;;;15.85;42.87;100980.69;3506510;41;20060;-75
2021/08/03 03:37:12;;;;;;;4.88;3.30;;;;;;;15.84;42.74;100984.47;3506007;41;20666;-75
2021/08/03 03:39:42;;;;;;;5.93;3.88;;;;;;;15.85;43.08;100981.56;3506099;41;20060;-76
2021/08/03 03:42:12;;;;;;;6.22;3.83;;;;;;;15.85;42.98;100976.03;3515784;40;20038;-75
2021/08/03 03:44:42;;;;;;;5.97;4.13;;;;;;;15.86;43.13;100976.91;3499821;40;20064;-79
2021/08/03 03:47:20;;;;;;;6.10;4.50;;;;;;;15.89;43.16;100971.06;3498429;41;20033;-76
2021/08/03 03:49:56;;;;;;;6.13;3.90;;;;;;;15.87;42.74;100967.63;3498240;41;20125;-76
2021/08/03 03:52:26;;;;;;;5.72;3.60;;;;;;;15.85;42.60;100973.28;3498196;41;20242;-76
2021/08/03 03:54:56;;;;;;;5.07;3.95;;;;;;;15.85;42.94;100976.03;3499740;40;20033;-74
2021/08/03 03:57:25;;;;;;;6.85;4.00;;;;;;;15.86;43.12;100965.88;3504301;40;20063;-76
2021/08/03 03:59:58;;;;;;;4.82;3.50;;;;;;;15.87;42.78;100968.47;3517650;40;20111;-75
2021/08/03 04:02:30;;;;;;;5.53;3.35;;;;;;;15.87;43.01;100960.19;3507856;41;20056;-75
2021/08/03 04:05:02;;;;;;;6.25;4.00;;;;;;;15.86;42.82;100966.75;3517945;40;20035;-75
2021/08/03 04:07:31;;;;;;;5.15;3.70;;;;;;;15.85;43.09;100970.53;3516703;40;20174;-74
2021/08/03 04:10:05;;;;;;;6.55;3.80;;;;;;;15.88;42.85;100975.72;3510174;40;20040;-74
2021/08/03 04:12:34;;;;;;;6.13;3.97;;;;;;;15.86;43.26;100971.41;3529852;40;20122;-75
2021/08/03 04:15:02;;;;;;;6.32;4.03;;;;;;;15.86;43.26;100972.25;3536874;40;20101;-76
2021/08/03 04:17:33;;;;;;;5.35;4.10;;;;;;;15.88;43.07;100972.09;3537146;40;20035;-75
2021/08/03 04:20:03;;;;;;;6.72;4.03;;;;;;;15.86;42.89;100969.50;3527620;40;20027;-75
2021/08/03 04:22:30;;;;;;;5.05;3.78;;;;;;;15.86;42.69;100972.25;3513129;40;20169;-76
2021/08/03 04:24:58;;;;;;;6.78;4.00;;;;;;;15.85;43.28;100964.16;3558189;40;20033;-74
2021/08/03 04:27:26;;;;;;;7.35;4.25;;;;;;;15.86;43.13;100968.63;3566474;40;20037;-74
2021/08/03 04:29:54;;;;;;;5.32;3.63;;;;;;;15.85;42.72;100969.66;3566351;40;20037;-75
2021/08/03 04:32:22;;;;;;;5.68;4.05;;;;;;;15.85;42.87;100973.28;3566377;40;20060;-75
2021/08/03 04:34:51;;;;;;;6.35;3.90;;;;;;;15.87;43.34;100970.38;3566102;40;20383;-75
2021/08/03 04:37:19;;;;;;;6.68;4.07;;;;;;;15.84;43.64;100971.56;3548365;40;20403;-75
2021/08/03 04:39:47;;;;;;;5.45;3.67;;;;;;;15.85;43.00;100972.41;3559886;40;20036;-75
2021/08/03 04:42:16;;;;;;;7.13;4.53;;;;;;;15.85;43.26;100972.41;3561284;40;20041;-74
2021/08/03 04:44:44;;;;;;;6.45;4.43;;;;;;;15.84;43.66;100968.78;3566870;40;20077;-74
2021/08/03 04:47:12;;;;;;;7.43;4.35;;;;;;;15.84;43.91;100968.78;3568342;40;20034;-75
2021/08/03 04:49:39;;;;;;;7.63;4.63;;;;;;;15.84;43.85;100973.44;3568216;40;20413;-75
2021/08/03 04:52:09;;;;;;;5.80;3.95;;;;;;;15.85;43.71;100972.41;3555708;40;20026;-74
2021/08/03 04:54:37;;;;;;;6.28;4.28;;;;;;;15.83;43.63;100972.56;3575362;40;20037;-75
2021/08/03 04:57:05;;;;;;;5.70;4.13;;;;;;;15.81;43.60;100969.13;3567848;40;20088;-76
2021/08/03 04:59:33;;;;;;;7.55;4.22;;;;;;;15.81;43.72;100969.13;3559454;40;20042;-74
2021/08/03 05:02:01;;;;;;;6.47;4.10;;;;;;;15.81;44.06;100969.13;3557437;40;20046;-73
2021/08/03 05:04:33;;;;;;;5.65;3.95;;;;;;;15.81;43.45;100966.34;3558225;40;20042;-74
2021/08/03 05:07:05;;;;;;;5.35;4.25;;;;;;;15.82;43.55;100962.56;3557702;40;20038;-75
2021/08/03 05:09:35;;;;;;;5.25;3.60;;;;;;;15.85;43.26;100967.78;3558508;40;20163;-75
2021/08/03 05:12:03;;;;;;;5.25;3.65;;;;;;;15.85;43.20;100958.63;3558954;40;20042;-73
2021/08/03 05:14:31;;;;;;;6.55;4.35;;;;;;;15.85;44.08;100961.38;3522176;40;20065;-76
2021/08/03 05:17:00;;;;;;;6.18;4.03;;;;;;;15.86;44.16;100966.75;3527102;40;20064;-75
2021/08/03 05:19:28;;;;;;;5.97;3.92;;;;;;;15.86;43.52;100963.13;3488036;41;20411;-74
2021/08/03 05:21:56;;;;;;;5.68;4.10;;;;;;;15.86;43.93;100961.22;3523740;40;20110;-74
2021/08/03 05:24:26;;;;;;;6.85;4.05;;;;;;;15.86;43.82;100952.94;3545762;40;20034;-76
2021/08/03 05:26:56;;;;;;;6.65;3.90;;;;;;;15.88;43.57;100950.91;3557930;40;20026;-76
2021/08/03 05:29:24;;;;;;;5.57;3.85;;;;;;;15.86;43.72;100952.09;3516949;40;20190;-74
2021/08/03 05:31:52;;;;;;;6.45;3.97;;;;;;;15.86;43.56;100946.56;3527345;40;20062;-75
2021/08/03 05:34:20;;;;;;;5.50;3.40;;;;;;;15.86;43.57;100952.09;3525230;40;20034;-76
2021/08/03 05:36:48;;;;;;;5.57;3.60;;;;;;;15.86;44.04;100949.31;3547279;40;20042;-76
2021/08/03 05:39:16;;;;;;;6.05;3.55;;;;;;;15.86;44.26;100949.31;3556177;40;20049;-74
2021/08/03 05:41:44;;;;;;;5.32;3.92;;;;;;;15.85;43.85;100951.22;3556731;40;20030;-75
2021/08/03 05:44:13;;;;;;;5.05;3.55;;;;;;;15.87;43.93;100957.44;3556226;40;20042;-74
2021/08/03 05:46:41;;;;;;;6.50;3.70;;;;;;;15.85;44.24;100947.59;3557394;40;20025;-75
2021/08/03 05:49:09;;;;;;;4.88;3.80;;;;;;;15.85;43.97;100947.59;3546251;40;20042;-74
2021/08/03 05:51:37;;;;;;;4.88;3.28;;;;;;;15.84;43.96;100946.72;3555495;40;20041;-76
2021/08/03 05:54:04;;;;;;;5.72;3.80;;;;;;;15.84;44.35;100955.00;3564313;40;20104;-74
2021/08/03 05:56:33;;;;;;;5.60;3.72;;;;;;;15.82;44.04;100952.41;3557427;40;20348;-74
2021/08/03 05:59:00;;;;;;;5.63;3.95;;;;;;;15.82;43.99;100954.28;3565000;40;20363;-75
2021/08/03 06:01:30;;;;;;;5.43;3.22;;;;;;;15.84;44.19;100951.38;3562429;40;20420;-74
2021/08/03 06:03:58;;;;;;;4.75;2.92;;;;;;;15.82;43.74;100948.78;3547139;40;20061;-73
2021/08/03 06:06:28;;;;;;;5.35;3.75;;;;;;;15.85;44.34;100961.38;3549786;40;20141;-74
2021/08/03 06:08:56;;;;;;;4.53;3.03;;;;;;;15.86;44.28;100957.59;3553092;40;20975;-74
2021/08/03 06:11:26;;;;;;;5.13;3.50;;;;;;;15.87;44.16;100960.19;3537284;40;20106;-74
2021/08/03 06:13:57;;;;;;;5.43;3.33;;;;;;;15.89;44.37;100955.34;3541417;40;20035;-75
2021/08/03 06:16:26;;;;;;;5.75;3.40;;;;;;;15.91;44.50;100952.44;3548401;40;20046;-74
2021/08/03 06:19:03;;;;;;;4.60;3.30;;;;;;;15.93;44.30;100947.63;3534528;40;20067;-72
2021/08/03 06:21:31;;;;;;;6.32;3.38;;;;;;;15.93;44.06;100947.63;3553234;40;20527;-72
2021/08/03 06:23:59;;;;;;;5.32;3.38;;;;;;;15.95;44.05;100943.69;3548491;40;20052;-73
2021/08/03 06:26:27;;;;;;;4.65;3.15;;;;;;;15.97;43.87;100949.03;3552213;40;20049;-71
2021/08/03 06:28:56;;;;;;;5.03;3.05;;;;;;;15.98;44.45;100946.09;3554209;40;20087;-72
2021/08/03 06:31:27;;;;;;;4.35;2.97;;;;;;;16.02;44.43;100943.88;3554530;40;20499;-72
2021/08/03 06:33:57;;;;;;;6.18;3.55;;;;;;;16.04;44.67;100942.69;3562045;40;20464;-72
2021/08/03 06:36:25;;;;;;;4.97;3.58;;;;;;;16.03;44.10;100946.47;3562667;40;20090;-72
2021/08/03 06:38:53;;;;;;;4.70;3.28;;;;;;;16.05;44.13;100940.81;3561459;40;20041;-72
2021/08/03 06:41:30;;;;;;;5.82;3.40;;;;;;;16.11;44.81;100948.41;3563050;40;20053;-72
2021/08/03 06:44:06;;;;;;;5.38;3.75;;;;;;;16.11;45.02;100951.16;3571432;40;20609;-72
2021/08/03 06:46:35;;;;;;;6.55;3.38;;;;;;;16.11;44.71;100943.75;3565911;40;20037;-73
2021/08/03 06:49:10;;;;;;;4.63;3.05;;;;;;;16.15;44.11;100944.28;3565590;40;20037;-72
2021/08/03 06:51:41;;;;;;;5.53;3.60;;;;;;;16.14;44.27;100945.28;3573067;40;20104;-72
2021/08/03 06:54:11;;;;;;;4.53;3.10;;;;;;;16.15;44.38;100947.03;3564047;40;20049;-72
2021/08/03 06:56:44;;;;;;;4.90;3.08;;;;;;;16.19;44.59;100948.44;3566099;40;20053;-72
2021/08/03 06:59:17;;;;;;;5.57;3.25;;;;;;;16.18;44.94;100952.22;3563442;40;20046;-73
2021/08/03 07:01:48;;;;;;;5.57;3.05;;;;;;;16.19;44.60;100954.81;3564419;40;20033;-74
2021/08/03 07:04:21;;;;;;;5.22;2.92;;;;;;;16.24;44.97;100936.88;3564776;40;20029;-74
2021/08/03 07:06:55;;;;;;;4.97;3.67;;;;;;;16.23;44.27;100941.53;3567625;40;20800;-73
2021/08/03 07:09:25;;;;;;;4.85;3.20;;;;;;;16.25;44.65;100938.63;3567315;40;20119;-74
2021/08/03 07:11:54;;;;;;;4.32;2.88;;;;;;;16.26;44.35;100935.69;3566414;40;20131;-71
2021/08/03 07:14:24;;;;;;;4.65;3.22;;;;;;;16.28;44.84;100933.63;3564802;40;20124;-72
2021/08/03 07:16:57;;;;;;;3.88;2.80;;;;;;;16.29;44.84;100934.50;3566454;40;20507;-71
2021/08/03 07:19:29;;;;;;;;;;;;;;;16.02;45.20;100949.41;3541529;40;20076;-72
2021/08/03 07:21:58;;;;;;;4.50;2.83;;;;;;;16.28;44.50;100933.63;3563844;40;20185;-70
2021/08/03 07:24:28;;;;;;;4.07;2.92;;;;;;;16.33;44.29;100933.13;3562801;40;20750;-70
2021/08/03 07:26:57;;;;;;;4.32;2.92;;;;;;;16.35;44.94;100937.44;3561744;40;20127;-70
2021/08/03 07:29:25;;;;;;;4.85;3.63;;;;;;;16.37;44.64;100934.53;3561589;40;20298;-74
2021/08/03 07:31:54;;;;;;;5.38;3.30;;;;;;;16.38;44.56;100937.13;3562713;40;20064;-70
2021/08/03 07:34:22;;;;;;;5.72;3.80;;;;;;;16.40;45.13;100937.81;3557700;40;20033;-70
2021/08/03 07:36:51;;;;;;;6.40;3.67;;;;;;;16.45;45.36;100940.06;3563901;40;20057;-70
2021/08/03 07:39:20;;;;;;;5.75;3.35;;;;;;;16.45;44.83;100940.06;3562812;40;20099;-69
2021/08/03 07:41:48;;;;;;;4.85;3.35;;;;;;;16.45;44.69;100937.31;3564510;40;20045;-70
2021/08/03 07:44:16;;;;;;;4.32;3.25;;;;;;;16.45;45.08;100938.19;3564794;40;20077;-70
2021/08/03 07:46:44;;;;;;;4.10;3.03;;;;;;;16.48;45.03;100939.75;3565748;40;20054;-70
2021/08/03 07:49:12;;;;;;;5.10;4.00;;;;;;;16.49;45.35;100935.97;3561957;40;20049;-70
2021/08/03 07:51:40;;;;;;;5.68;3.53;;;;;;;16.51;45.38;100936.66;3558264;40;20058;-69
2021/08/03 07:54:09;;;;;;;5.20;3.58;;;;;;;16.53;45.29;100940.13;3564980;40;20058;-69
2021/08/03 07:56:37;;;;;;;4.75;3.20;;;;;;;16.53;45.12;100937.34;3561860;40;20050;-70
2021/08/03 07:59:05;;;;;;;5.18;3.60;;;;;;;16.55;45.42;100943.56;3561170;40;20042;-70
2021/08/03 08:01:34;;;;;;;4.55;3.42;;;;;;;16.59;45.40;100942.19;3564956;40;20095;-70
2021/08/03 08:04:03;;;;;;;4.63;3.35;;;;;;;16.59;45.55;100939.44;3565012;40;20339;-70
2021/08/03 08:06:31;;;;;;;4.97;3.63;;;;;;;16.62;45.61;100935.47;3565065;40;20061;-70
2021/08/03 08:09:18;;;;;;;4.78;3.40;;;;;;;16.64;45.13;100928.72;3554833;40;20046;-70
2021/08/03 08:11:46;;;;;;;6.57;3.83;;;;;;;16.65;45.15;100929.59;3550434;40;20443;-70
2021/08/03 08:14:15;;;;;;;5.28;3.33;;;;;;;16.68;45.50;100929.28;3554790;40;20045;-70
2021/08/03 08:16:43;;;;;;;5.10;3.47;;;;;;;16.68;45.10;100921.84;3549233;40;20360;-70
2021/08/03 08:19:11;;;;;;;4.90;2.97;;;;;;;16.71;45.20;100915.13;3560350;40;20065;-70
2021/08/03 08:21:39;;;;;;;5.20;3.42;;;;;;;16.74;45.80;100917.53;3563123;40;20127;-69
2021/08/03 08:24:07;;;;;;;5.82;3.30;;;;;;;16.76;45.76;100910.81;3564811;40;20041;-69
2021/08/03 08:26:36;;;;;;;5.15;3.40;;;;;;;16.80;45.36;100906.66;3559047;40;20061;-70
2021/08/03 08:29:04;;;;;;;4.72;3.25;;;;;;;16.82;45.98;100904.59;3564450;40;20049;-69
2021/08/03 08:31:32;;;;;;;5.03;3.15;;;;;;;16.86;45.50;100905.97;3561064;40;20135;-69
2021/08/03 08:34:00;;;;;;;5.15;3.17;;;;;;;16.90;45.60;100906.47;3566296;40;20049;-69
2021/08/03 08:36:28;;;;;;;4.88;3.38;;;;;;;16.93;45.47;100901.50;3562541;40;20033;-70
2021/08/03 08:38:56;;;;;;;5.68;3.17;;;;;;;16.99;45.86;100899.91;3566454;40;20388;-69
2021/08/03 08:41:24;;;;;;;5.50;3.42;;;;;;;17.04;45.47;100899.41;3566857;40;20131;-70
2021/08/03 08:43:55;;;;;;;6.45;3.47;;;;;;;17.12;45.68;100891.97;3566178;40;20069;-70
2021/08/03 08:46:23;;;;;;;5.20;3.30;;;;;;;17.17;45.58;100896.97;3563199;40;20150;-70
2021/08/03 08:48:52;;;;;;;5.13;3.38;;;;;;;17.24;45.48;100893.34;3558154;40;20405;-69
2021/08/03 08:51:20;;;;;;;4.68;3.20;;;;;;;17.31;45.97;100894.38;3556162;40;20042;-69
2021/08/03 08:53:50;;;;;;;4.45;2.83;;;;;;;17.43;45.72;100899.56;3563923;40;20041;-69
2021/08/03 08:56:18;;;;;;;3.80;2.60;;;;;;;17.50;45.48;100901.44;3565898;40;20061;-70
2021/08/03 08:58:46;;;;;;;4.40;2.60;;;;;;;17.59;45.74;100900.38;3557032;40;20053;-70
2021/08/03 09:01:15;;;;;;;3.72;2.30;;;;;;;17.72;45.85;100896.19;3554184;40;20046;-69
2021/08/03 09:03:46;;;;;;;4.63;2.60;;;;;;;17.79;45.82;100895.28;3557447;40;20056;-70
2021/08/03 09:06:20;;;;;;;3.63;2.72;;;;;;;17.95;44.58;100899.88;3562942;40;20135;-70
2021/08/03 09:08:49;;;;;;;5.35;2.50;;;;;;;18.01;44.92;100893.66;3562353;40;20037;-68
2021/08/03 09:11:18;;;;;;;4.13;2.30;;;;;;;18.13;44.38;100892.22;3566633;40;20045;-69
2021/08/03 09:13:54;;;;;;;4.53;2.42;;;;;;;18.25;43.39;100889.94;3563943;40;20080;-69
2021/08/03 09:16:26;;;;;;;4.03;2.33;;;;;;;18.31;43.58;100881.75;3560430;40;21347;-69
2021/08/03 09:18:57;;;;;;;3.45;2.05;;;;;;;18.37;43.83;100880.16;3564413;40;20324;-69
2021/08/03 09:21:27;;;;;;;3.63;1.92;;;;;;;18.47;43.67;100885.44;3564441;40;20049;-69
2021/08/03 09:23:57;;;;;;;5.10;2.60;;;;;;;18.54;42.81;100887.31;3562703;40;20145;-69
2021/08/03 09:26:40;;;;;;;4.00;2.10;;;;;;;18.62;42.81;100886.38;3562412;40;20127;-69
2021/08/03 09:29:10;;;;;;;3.40;2.10;;;;;;;18.68;43.19;100874.59;3553222;40;20041;-69
2021/08/03 09:31:41;;;;;;;3.40;2.03;;;;;;;18.76;42.67;100888.38;3560651;40;20042;-69
2021/08/03 09:34:13;;;;;;;4.22;2.17;;;;;;;18.80;42.54;100885.06;3564578;40;20155;-70
2021/08/03 09:36:50;;;;;;;3.28;2.10;;;;;;;18.85;41.99;100887.28;3563977;40;20298;-69
2021/08/03 09:39:51;;;;;;;4.72;2.30;;;;;;;18.85;42.22;100886.44;3560268;40;20294;-69
2021/08/03 09:42:21;;;;;;;3.58;2.38;;;;;;;18.94;42.33;100886.16;3561649;40;20133;-69
2021/08/03 09:44:53;;;;;;;3.47;2.15;;;;;;;19.02;41.97;100879.69;3564475;40;20053;-70
2021/08/03 09:47:29;;;;;;;3.10;2.20;;;;;;;19.08;41.84;100879.81;3563159;40;20045;-69
2021/08/03 09:49:58;;;;;;;3.97;2.30;;;;;;;19.15;42.50;100886.31;3563555;40;20053;-69
2021/08/03 09:52:28;;;;;;;3.63;2.38;;;;;;;19.24;42.52;100883.47;3561810;40;20042;-69
2021/08/03 09:55:11;;;;;;;3.38;2.10;;;;;;;19.34;41.15;100884.94;3553792;40;20054;-69
2021/08/03 09:57:40;;;;;;;;;;;;;;;19.11;42.99;100884.94;3550587;40;20244;-69
2021/08/03 10:00:34;;;;;;;3.53;2.28;;;;;;;19.48;42.02;100883.22;3561539;40;19933;-69
2021/08/03 10:03:05;;;;;;;5.22;2.30;;;;;;;19.62;41.47;100878.75;3559797;40;20041;-69
2021/08/03 10:05:35;;;;;;;5.35;2.58;;;;;;;19.72;41.04;100871.84;3562233;40;20057;-69
2021/08/03 10:08:03;;;;;;;3.55;2.33;;;;;;;19.79;41.57;100875.59;3560477;40;20128;-69
2021/08/03 10:10:34;;;;;;;3.42;2.10;;;;;;;19.90;40.91;100869.56;3559733;40;20061;-69
2021/08/03 10:13:04;;;;;;;3.90;2.13;;;;;;;19.99;40.46;100867.53;3559882;40;20053;-69
2021/08/03 10:15:34;;;;;;;;;;;;;;;19.75;41.42;100871.47;3558368;40;20067;-68
2021/08/03 10:18:04;;;;;;;2.80;1.92;;;;;;;20.09;40.66;100861.69;3568292;40;20045;-69
2021/08/03 10:20:44;;;;;;;3.92;2.25;;;;;;;20.20;39.16;100861.16;3562365;40;20058;-68
2021/08/03 10:23:12;;;;;;;3.80;2.13;;;;;;;20.22;40.11;100862.72;3557160;40;20045;-69
2021/08/03 10:25:41;;;;;;;3.40;1.98;;;;;;;20.29;39.59;100863.66;3554832;40;20045;-69
2021/08/03 10:28:19;;;;;;;2.70;1.92;;;;;;;20.37;38.27;100859.88;3556843;40;20034;-69
2021/08/03 10:30:47;;;;;;;3.15;1.75;;;;;;;20.39;39.46;100856.91;3563118;40;20049;-69
2021/08/03 10:33:42;;;;;;;3.67;1.85;;;;;;;20.45;38.80;100858.91;3559415;40;20171;-69
2021/08/03 10:36:47;;;;;;;3.53;2.05;;;;;;;20.49;38.74;100863.03;3561953;40;20064;-69
2021/08/03 10:39:18;;;;;;;2.83;1.73;;;;;;;20.54;39.12;100861.38;3562189;40;20065;-69
2021/08/03 10:42:12;;;;;;;3.40;1.90;;;;;;;20.60;39.30;100855.00;3562388;40;20057;-65
2021/08/03 10:44:45;;;;;;;2.72;1.90;;;;;;;20.66;38.54;100851.47;3551972;40;20040;-65
2021/08/03 10:47:46;;;;;;;3.88;1.80;;;;;;;20.68;38.97;100856.78;3553066;40;20061;-64
2021/08/03 10:50:33;;;;;;;3.10;1.85;;;;;;;20.77;37.88;100855.59;3537512;40;20066;-65
2021/08/03 10:53:03;;;;;;;3.13;1.92;;;;;;;20.82;38.55;100849.47;3551537;40;20417;-68
2021/08/03 10:55:43;;;;;;;2.70;1.80;;;;;;;20.89;37.79;100851.25;3553649;40;20066;-63
2021/08/03 10:58:29;;;;;;;2.80;1.70;;;;;;;20.92;38.15;100849.97;3558910;40;20123;-63
2021/08/03 11:00:58;;;;;;;2.80;1.90;;;;;;;20.91;38.19;100860.25;3563608;40;20054;-63
2021/08/03 11:03:43;;;;;;;2.70;1.55;;;;;;;20.96;38.02;100856.88;3561639;40;20370;-63
2021/08/03 11:06:38;;;;;;;3.00;1.77;;;;;;;20.95;38.08;100852.38;3555466;40;20077;-64
2021/08/03 11:09:32;;;;;;;2.47;1.58;;;;;;;20.96;37.69;100849.41;3562785;40;20328;-64
2021/08/03 11:12:37;;;;;;;2.80;1.80;;;;;;;20.90;38.22;100854.91;3563192;40;20448;-64
2021/08/03 11:15:41;;;;;;;3.22;1.85;;;;;;;20.95;37.39;100856.03;3527768;40;20716;-64
2021/08/03 11:18:14;;;;;;;2.60;1.75;;;;;;;20.95;37.63;100857.94;3532009;40;20054;-64
2021/08/03 11:21:11;;;;;;;3.83;2.15;;;;;;;20.89;37.69;100854.06;3561526;40;20051;-64
2021/08/03 11:24:06;;;;;;;2.90;1.67;;;;;;;20.89;37.10;100859.59;3556571;40;20409;-63
2021/08/03 11:26:39;;;;;;;2.55;1.50;;;;;;;20.86;37.25;100853.53;3561163;40;20332;-64
2021/08/03 11:29:13;;;;;;;2.78;1.60;;;;;;;20.80;37.61;100852.44;3560159;40;20135;-63
2021/08/03 11:31:44;;;;;;;2.65;1.40;;;;;;;20.74;37.37;100856.00;3563672;40;20049;-63
2021/08/03 11:34:14;;;;;;;2.30;1.45;;;;;;;20.67;37.44;100850.38;3557434;40;20312;-63
2021/08/03 11:37:02;;;;;;;2.28;1.40;;;;;;;20.58;37.44;100851.56;3560637;40;20037;-63
2021/08/03 11:39:33;;;;;;;2.30;1.20;;;;;;;20.53;37.36;100854.09;3558569;40;20120;-64
2021/08/03 11:42:01;;;;;;;2.70;1.42;;;;;;;20.46;37.54;100855.06;3562446;40;20080;-63
2021/08/03 11:44:30;;;;;;;2.13;1.40;;;;;;;20.40;37.70;100847.53;3562707;40;20100;-64
2021/08/03 11:47:00;;;;;;;2.90;1.67;;;;;;;20.37;38.06;100848.78;3557142;40;20054;-64
2021/08/03 11:49:30;;;;;;;2.95;1.58;;;;;;;20.33;38.16;100839.13;3560164;40;20412;-64
2021/08/03 11:52:14;;;;;;;2.35;1.48;;;;;;;20.30;38.22;100836.75;3558644;40;20314;-64